Where is Monumento a Pedro Sáinz de Baranda in Mexico?

Monumento a Pedro Sáinz de Baranda is situated in the region Yucatan in Mexico!

Search the name of a city:

Monumento ai Caduti, Monument des Fusiliers Marins, Monumento a Giovanni Gervasoni e ai caduti di Monte Marino, monumento ai caduti di tutte le guerre, Monumento ai Caduti

Here you will find the location of Monumento a Pedro Sáinz de Baranda on a map.
To see how it currently looks like outside, below are some pictures of the area from online web cameras.
You can also find the distance to the main cities in the region and to cities in the rest of Mexico.

All places in the world called .

new

Where is Monumento a Pedro Sáinz de Baranda on the map?


Webcams near Monumento a Pedro Sáinz de Baranda

Random webcams:
(Sorry, there are no webcams registered at webcams.travel within 250 km of Monumento a Pedro Sáinz de Baranda)

Svatý Petr: Erlebachova bouda I - ?pindler?v Mlýn.


Svatý Petr: Erlebachova bouda I - ?pindler?v Mlýn - Day time
Current
Svatý Petr: Erlebachova bouda I - ?pindler?v Mlýn - Current

Benavente > North-East: AIrport, METAR: BENAV 180005Z 36004KT 17/14 Q1015.


Benavente > North-East: AIrport, METAR: BENAV 180005Z 36004KT 17/14 Q1015 - Day time
Current
Benavente > North-East: AIrport, METAR: BENAV 180005Z 36004KT 17/14 Q1015 - Current

Haringey: MONUMENT WAY/PARK VIEW ROAD.


Haringey: MONUMENT WAY/PARK VIEW ROAD - Day time
Current
Haringey: MONUMENT WAY/PARK VIEW ROAD - Current

Webcams provided by webcams.travel

Distances

Where is Monumento a Pedro Sáinz de Baranda relative to other places?

Top 10 cities in Yucatan and distance from Monumento a Pedro Sáinz de Baranda.

City#Populationkmmiles
Mérida171719664
Progreso2471243924
Tizimín34199315999
Kanasín440027117
Valladolid53966315697
Ticul6302826138
Umán728473106
Tekax8228079257
Hunucmá9222882314
Oxkutzcab10215087647

Top 10 cities in Mexico and distance from Monumento a Pedro Sáinz de Baranda.

City # Populationkmmiles
Mexico187209161003623
Ecatepec21806297990615
Guadalajara316406491419882
Juarez4140302520571278
Puebla51392137916569
Tijuana6137649429951861
Nezahualcóyotl71232565991616
Monterrey811229121207750
León911146621246774
Zapopan109875551427887

Alerts and advice Mexico

Advice and information about traveling and security in Mexico.

With a travel advise, tourists can be informed about security risks during traveling or vacation in a foreign country. Be informed about the risks of kidnapping, armed robbery, bombings, natural disasters or war. Know which areas are unsafe in Mexicoo. Be vigilant, or avoid certain areas when on vacation in Mexico.

Alerts and advice



Travel information Mexico

Information on travel documents, visa applications and the cost of a visa.
Contact information of embassies in Mexico.
Different types of travel insurance.

Travel information